Time;durP1;ratioP1;P1;durP2;ratioP2;P2;SDS_P1;SDS_P2;PMS_P1;PMS_P2;Temp;Humidity;BMP_temperature;BMP_pressure;BME280_temperature;BME280_humidity;BME280_pressure;Samples;Min_cycle;Max_cycle;Signal;HPM_P1;HPM_P2
2021/12/20 00:01:20;;;;;;;;;24.75;16.75;;;;;2.34;61.40;100742.47;146619;612;46016;-78
2021/12/20 00:04:12;;;;;;;;;31.75;27.25;;;;;2.35;60.99;100735.69;146621;593;46020;-75
2021/12/20 00:07:04;;;;;;;;;40.25;34.00;;;;;2.38;61.05;100731.72;146619;605;46916;-75
2021/12/20 00:09:56;;;;;;;;;44.50;36.75;;;;;2.40;60.73;100729.28;146622;625;46010;-75
2021/12/20 00:12:49;;;;;;;;;35.25;28.50;;;;;2.41;61.12;100733.66;146621;582;46012;-78
2021/12/20 00:15:42;;;;;;;;;48.75;39.25;;;;;2.39;61.63;100736.06;146624;598;45020;-78
2021/12/20 00:18:34;;;;;;;;;31.75;29.25;;;;;2.39;60.73;100737.72;146620;571;46012;-87
2021/12/20 00:21:26;;;;;;;;;38.75;27.50;;;;;2.39;62.34;100735.16;146622;620;45020;-86
2021/12/20 00:24:20;;;;;;;;;30.50;24.50;;;;;2.31;62.29;100725.19;146619;569;46012;-83
2021/12/20 00:27:14;;;;;;;;;30.00;28.50;;;;;2.32;61.09;100733.78;146622;715;46021;-84
2021/12/20 00:30:11;;;;;;;;;35.75;28.50;;;;;2.33;63.08;100721.87;146616;576;46016;-84
2021/12/20 00:33:03;;;;;;;;;25.00;22.50;;;;;2.31;61.51;100734.53;146624;567;46021;-86
2021/12/20 00:35:56;;;;;;;;;23.00;21.50;;;;;2.27;61.33;100727.34;146621;781;46012;-87
2021/12/20 00:41:58;;;;;;;;;30.75;27.75;;;;;2.31;62.92;100717.53;146620;570;46016;-88
2021/12/20 00:44:51;;;;;;;;;29.00;26.00;;;;;2.30;61.71;100719.94;146622;565;46020;-87
2021/12/20 00:47:43;;;;;;;;;34.00;29.25;;;;;2.30;61.29;100725.94;146619;657;46016;-80
2021/12/20 00:50:36;;;;;;;;;32.00;27.00;;;;;2.29;61.46;100720.72;146620;649;46020;-83
2021/12/20 00:53:28;;;;;;;;;27.25;24.50;;;;;2.27;61.62;100722.25;146618;624;46016;-83
2021/12/20 00:56:20;;;;;;;;;27.75;23.00;;;;;2.24;62.02;100721.97;146623;626;46011;-82
2021/12/20 00:59:12;;;;;;;;;28.75;26.00;;;;;2.18;62.31;100721.47;146620;682;46016;-84
2021/12/20 01:02:05;;;;;;;;;34.00;29.50;;;;;2.14;62.35;100720.31;146625;567;45020;-81
2021/12/20 01:04:57;;;;;;;;;29.25;24.00;;;;;2.07;62.32;100715.47;146621;598;46012;-83
2021/12/20 01:07:50;;;;;;;;;24.00;18.00;;;;;2.01;63.05;100715.84;146626;661;45020;-81
2021/12/20 01:10:46;;;;;;;;;28.25;24.25;;;;;2.01;62.87;100709.81;146618;600;46012;-77
2021/12/20 01:13:40;;;;;;;;;28.25;24.00;;;;;2.00;63.14;100705.50;146625;646;46010;-75
2021/12/20 01:16:33;;;;;;;;;22.50;18.75;;;;;2.00;63.19;100713.16;146621;605;46012;-78
2021/12/20 01:19:25;;;;;;;;;17.50;17.25;;;;;1.99;62.56;100709.69;146623;637;46010;-78
2021/12/20 01:22:17;;;;;;;;;20.50;17.75;;;;;2.00;62.79;100718.28;146622;576;45916;-77
2021/12/20 01:25:10;;;;;;;;;20.75;16.00;;;;;2.02;63.25;100709.94;146626;649;45014;-79
2021/12/20 01:28:02;;;;;;;;;22.00;20.25;;;;;2.02;62.66;100698.81;146620;577;46916;-88
2021/12/20 01:30:54;;;;;;;;;39.75;30.00;;;;;2.01;63.10;100700.50;146621;575;46020;-79
2021/12/20 01:33:46;;;;;;;;;34.00;27.75;;;;;1.99;63.25;100704.56;146620;606;46016;-80
2021/12/20 01:36:38;;;;;;;;;59.00;47.75;;;;;2.01;62.35;100705.59;146624;572;46010;-78
2021/12/20 01:39:30;;;;;;;;;39.25;33.75;;;;;2.01;63.15;100702.16;146619;581;46016;-81
2021/12/20 01:42:24;;;;;;;;;57.25;45.25;;;;;2.00;63.20;100706.38;146624;651;46020;-81
2021/12/20 01:45:22;;;;;;;;;34.00;26.50;;;;;1.98;62.96;100691.66;146621;574;46012;-80
2021/12/20 01:48:16;;;;;;;;;40.75;33.00;;;;;1.92;63.32;100684.37;146623;705;46010;-81
2021/12/20 01:54:21;;;;;;;;;31.00;27.50;;;;;1.88;64.45;100682.31;146623;594;46010;-79
2021/12/20 01:57:13;;;;;;;;;43.50;39.00;;;;;1.82;63.32;100675.03;146620;592;46016;-78
2021/12/20 02:00:10;;;;;;;;;32.75;25.25;;;;;1.76;63.49;100671.06;146624;626;45030;-78
2021/12/20 02:03:03;;;;;;;;;64.25;49.75;;;;;1.74;62.76;100672.56;146622;660;46012;-79
2021/12/20 02:05:58;;;;;;;;;39.25;32.25;;;;;1.74;63.03;100670.03;146622;676;46020;-82
2021/12/20 02:08:50;;;;;;;;;37.75;34.00;;;;;1.73;63.41;100666.56;146620;574;46012;-83
2021/12/20 02:11:44;;;;;;;;;29.50;27.25;;;;;1.74;63.57;100667.47;146623;567;46010;-77
2021/12/20 02:14:36;;;;;;;;;41.50;33.00;;;;;1.74;63.34;100649.56;146618;654;46014;-82
2021/12/20 02:17:28;;;;;;;;;33.50;28.00;;;;;1.74;63.11;100645.34;146622;610;46021;-83
2021/12/20 02:20:29;;;;;;;;;32.25;25.00;;;;;1.77;62.89;100644.72;146621;589;46012;-86
2021/12/20 02:23:21;;;;;;;;;32.50;26.50;;;;;1.77;62.94;100643.03;146619;574;46020;-86
2021/12/20 02:26:17;;;;;;;;;40.50;31.75;;;;;1.73;62.90;100638.44;146620;569;45917;-82
2021/12/20 02:29:10;;;;;;;;;37.75;32.00;;;;;1.70;63.98;100635.62;146618;624;46014;-81
2021/12/20 02:38:36;;;;;;;;;30.00;25.50;;;;;1.62;64.32;100629.00;146621;577;46012;-83
2021/12/20 02:41:32;;;;;;;;;33.75;27.00;;;;;1.59;64.21;100618.53;146623;607;46010;-85
2021/12/20 02:44:27;;;;;;;;;31.25;27.00;;;;;1.59;65.07;100615.97;146617;629;46916;-82
2021/12/20 02:47:28;;;;;;;;;28.75;24.25;;;;;1.55;64.65;100608.78;146624;665;45021;-84
2021/12/20 02:50:20;;;;;;;;;25.00;22.00;;;;;1.49;64.96;100615.91;146620;614;46016;-81
2021/12/20 02:53:12;;;;;;;;;28.50;26.00;;;;;1.44;65.10;100617.22;146625;615;46011;-79
2021/12/20 02:56:05;;;;;;;;;31.00;26.75;;;;;1.38;65.79;100600.59;146620;577;46016;-79
2021/12/20 02:58:58;;;;;;;;;29.25;24.00;;;;;1.36;64.56;100611.44;146621;598;46020;-78
2021/12/20 03:01:56;;;;;;;;;42.50;34.50;;;;;1.35;64.56;100607.97;146621;609;46012;-80
2021/12/20 03:04:49;;;;;;;;;33.75;29.75;;;;;1.35;65.14;100597.75;146624;691;45020;-79
2021/12/20 03:07:49;;;;;;;;;28.25;24.50;;;;;1.32;64.49;100602.63;146619;629;46017;-79
2021/12/20 03:10:42;;;;;;;;;34.75;31.00;;;;;1.30;64.15;100601.56;146623;697;46010;-80
2021/12/20 03:13:34;;;;;;;;;47.75;39.75;;;;;1.32;64.85;100601.72;146625;569;45016;-86
2021/12/20 03:16:27;;;;;;;;;30.25;25.00;;;;;1.31;64.89;100593.16;146622;611;46010;-85
2021/12/20 03:19:19;;;;;;;;;25.00;20.25;;;;;1.29;65.57;100601.47;146620;612;46014;-83
2021/12/20 03:22:11;;;;;;;;;26.00;22.25;;;;;1.24;65.64;100593.37;146623;571;46010;-82
2021/12/20 03:25:04;;;;;;;;;21.75;21.00;;;;;1.27;64.63;100600.41;146616;566;46917;-80
2021/12/20 03:27:56;;;;;;;;;66.50;51.75;;;;;1.32;65.69;100604.28;146620;597;46020;-81
2021/12/20 03:30:49;;;;;;;;;80.67;61.00;;;;;1.39;64.67;100604.91;146616;625;46017;-81
2021/12/20 03:33:41;;;;;;;;;62.00;48.00;;;;;1.46;64.52;100608.00;146620;583;46020;-86
2021/12/20 03:36:34;;;;;;;;;50.25;39.75;;;;;1.54;64.06;100612.09;146617;654;46016;-82
2021/12/20 03:39:26;;;;;;;;;28.50;22.00;;;;;1.61;63.43;100610.19;146622;575;46021;-82
2021/12/20 03:42:19;;;;;;;;;27.25;22.75;;;;;1.65;63.99;100621.56;146618;577;46016;-86
2021/12/20 03:45:14;;;;;;;;;25.25;23.25;;;;;1.67;62.97;100625.16;146623;610;46010;-82
2021/12/20 03:48:06;;;;;;;;;22.00;19.50;;;;;1.66;64.94;100630.16;146618;599;46016;-83
2021/12/20 03:51:02;;;;;;;;;21.75;16.75;;;;;1.61;65.36;100630.63;146623;581;46010;-83
2021/12/20 03:53:54;;;;;;;;;19.25;15.75;;;;;1.57;64.28;100643.94;146616;570;46016;-84
2021/12/20 03:56:46;;;;;;;;;17.75;14.50;;;;;1.57;65.06;100658.38;146621;595;46020;-80
2021/12/20 03:59:39;;;;;;;;;29.75;20.75;;;;;1.55;65.02;100659.88;146619;654;46015;-80
2021/12/20 04:02:38;;;;;;;;;16.25;14.00;;;;;1.51;64.68;100653.63;146622;628;46021;-76
2021/12/20 04:05:30;;;;;;;;;53.00;40.75;;;;;1.50;64.25;100658.63;146619;595;46012;-76
2021/12/20 04:08:22;;;;;;;;;28.25;27.25;;;;;1.53;64.87;100658.88;146622;665;46021;-76
2021/12/20 04:11:15;;;;;;;;;30.75;27.00;;;;;1.55;65.85;100660.78;146620;584;46012;-77
2021/12/20 04:14:07;;;;;;;;;21.25;20.75;;;;;1.51;65.07;100663.84;146621;658;45021;-76
2021/12/20 04:16:59;;;;;;;;;27.75;22.75;;;;;1.47;65.84;100663.47;146620;569;46014;-77
2021/12/20 04:19:51;;;;;;;;;22.75;18.50;;;;;1.44;64.71;100669.19;146621;620;46020;-78
2021/12/20 04:22:44;;;;;;;;;29.75;25.00;;;;;1.42;65.38;100657.06;146620;564;46014;-78
2021/12/20 04:25:36;;;;;;;;;26.25;22.00;;;;;1.48;63.89;100660.13;146625;584;45020;-79
2021/12/20 04:28:29;;;;;;;;;26.00;19.50;;;;;1.53;64.53;100672.56;146623;581;46012;-78
2021/12/20 04:31:21;;;;;;;;;29.50;24.50;;;;;1.57;64.19;100671.16;146623;643;46020;-79
2021/12/20 04:34:13;;;;;;;;;25.00;21.00;;;;;1.59;63.75;100682.41;146621;582;46012;-76
2021/12/20 04:37:08;;;;;;;;;27.50;24.75;;;;;1.59;63.86;100678.19;146624;579;45021;-78
2021/12/20 04:40:05;;;;;;;;;26.50;23.25;;;;;1.59;64.73;100674.75;146618;610;46016;-78
2021/12/20 04:43:01;;;;;;;;;24.00;23.25;;;;;1.54;63.98;100671.78;146623;657;45020;-76
2021/12/20 04:45:53;;;;;;;;;29.25;24.00;;;;;1.50;64.61;100672.28;146625;613;46013;-76
2021/12/20 04:48:45;;;;;;;;;27.50;26.75;;;;;1.46;65.31;100684.66;146625;571;46010;-76
2021/12/20 04:51:38;;;;;;;;;31.00;25.00;;;;;1.38;64.75;100681.44;146622;643;45016;-76
2021/12/20 04:54:30;;;;;;;;;31.00;25.50;;;;;1.32;65.39;100679.25;146626;660;45020;-76
2021/12/20 04:57:22;;;;;;;;;38.75;28.75;;;;;1.31;65.29;100679.12;146621;580;46916;-76
2021/12/20 05:00:18;;;;;;;;;35.00;31.50;;;;;1.27;65.29;100675.38;146626;710;45021;-78
2021/12/20 05:03:11;;;;;;;;;32.75;28.25;;;;;1.25;65.17;100679.50;146622;572;45916;-79
2021/12/20 05:06:03;;;;;;;;;36.00;28.00;;;;;1.26;66.00;100676.16;146626;643;46010;-79
2021/12/20 05:08:55;;;;;;;;;30.50;27.50;;;;;1.29;64.58;100680.66;146622;585;46012;-78
2021/12/20 05:11:55;;;;;;;;;36.00;33.00;;;;;1.32;65.63;100671.59;146624;613;46010;-77
2021/12/20 05:14:48;;;;;;;;;30.00;24.75;;;;;0.23;64.86;100493.63;146623;625;45016;-80
2021/12/20 05:17:41;;;;;;;;;23.25;23.00;;;;;1.32;65.43;100673.25;146626;636;45020;-79
2021/12/20 05:20:33;;;;;;;;;25.50;24.75;;;;;1.34;66.11;100674.25;146618;634;46015;-79
2021/12/20 05:23:26;;;;;;;;;25.25;22.75;;;;;1.33;65.40;100680.13;146622;662;46021;-79
2021/12/20 05:26:18;;;;;;;;;29.25;23.50;;;;;1.31;64.35;100668.91;146619;587;46012;-79
2021/12/20 05:29:10;;;;;;;;;29.25;21.75;;;;;1.33;65.11;100682.69;146622;582;46020;-80
2021/12/20 05:32:05;;;;;;;;;25.50;22.50;;;;;1.34;65.63;100679.38;146621;596;45016;-79
2021/12/20 05:34:57;;;;;;;;;34.00;25.50;;;;;1.31;65.32;100682.56;146623;592;46020;-75
2021/12/20 05:37:49;;;;;;;;;26.00;23.25;;;;;1.30;66.19;100682.44;146621;592;46016;-81
2021/12/20 05:40:42;;;;;;;;;25.75;25.00;;;;;1.26;65.35;100678.72;146622;587;46010;-80
2021/12/20 05:43:34;;;;;;;;;36.50;32.00;;;;;1.25;65.67;100673.50;146620;583;46017;-82
2021/12/20 05:46:26;;;;;;;;;32.25;26.75;;;;;1.25;65.93;100665.81;146623;581;46010;-80
2021/12/20 05:49:18;;;;;;;;;35.25;30.25;;;;;1.28;65.58;100672.09;146621;575;46014;-83
2021/12/20 05:52:11;;;;;;;;;47.00;37.00;;;;;1.33;65.69;100677.59;146623;690;46021;-83
2021/12/20 05:55:03;;;;;;;;;37.00;31.25;;;;;1.37;64.53;100674.53;146619;574;46014;-82
2021/12/20 05:57:55;;;;;;;;;31.25;27.50;;;;;1.43;65.94;100681.81;146623;587;46010;-84
2021/12/20 06:00:47;;;;;;;;;31.75;27.75;;;;;1.44;64.44;100687.09;146621;620;46012;-80
2021/12/20 06:03:40;;;;;;;;;39.50;35.00;;;;;1.44;65.79;100684.53;146623;615;46020;-80
2021/12/20 06:06:32;;;;;;;;;38.00;33.25;;;;;1.46;64.93;100684.66;146618;607;46012;-79
2021/12/20 06:09:25;;;;;;;;;49.25;38.75;;;;;1.44;64.85;100692.19;146624;580;45047;-84
2021/12/20 06:12:18;;;;;;;;;50.75;40.50;;;;;1.50;65.56;100684.16;146621;723;46916;-84
2021/12/20 06:15:11;;;;;;;;;55.00;44.00;;;;;1.52;65.64;100686.06;146623;573;46020;-86
2021/12/20 06:18:03;;;;;;;;;49.75;40.25;;;;;1.49;67.32;100680.69;146619;570;46916;-85
2021/12/20 06:20:55;;;;;;;;;41.75;36.00;;;;;1.48;65.42;100683.12;146619;698;46021;-86
2021/12/20 06:23:48;;;;;;;;;86.67;68.33;;;;;1.45;66.35;100688.88;146620;609;46016;-82
2021/12/20 06:26:40;;;;;;;;;104.67;80.00;;;;;1.50;65.16;100696.94;146628;582;46020;-83
2021/12/20 06:29:32;;;;;;;;;246.25;189.00;;;;;1.54;66.13;100693.88;146633;574;46012;-82
2021/12/20 06:32:24;;;;;;;;;118.67;96.00;;;;;1.59;65.33;100705.41;146626;592;46020;-83
2021/12/20 06:35:17;;;;;;;;;68.50;53.75;;;;;1.68;64.86;100700.16;146624;643;46013;-83
2021/12/20 06:38:12;;;;;;;;;58.75;47.50;;;;;1.76;65.33;100700.06;146624;586;46010;-82
2021/12/20 06:41:04;;;;;;;;;53.50;41.50;;;;;1.86;66.87;100699.19;146621;666;46012;-84
2021/12/20 06:43:56;;;;;;;;;51.75;43.25;;;;;2.13;65.99;100704.84;146625;605;46010;-84
2021/12/20 06:46:49;;;;;;;;;46.25;38.25;;;;;2.80;65.40;100707.87;146618;606;45016;-83
2021/12/20 06:49:41;;;;;;;;;56.75;42.00;;;;;4.01;64.13;100702.06;146623;566;46020;-84
2021/12/20 06:52:33;;;;;;;;;62.50;46.50;;;;;5.40;61.04;100698.66;146623;634;45016;-82
2021/12/20 06:55:25;;;;;;;;;37.00;31.50;;;;;6.72;57.97;100700.00;146622;613;46020;-83
2021/12/20 06:58:18;;;;;;;;;37.00;30.75;;;;;7.85;55.04;100691.75;146620;593;45916;-83
2021/12/20 07:01:10;;;;;;;;;48.75;38.00;;;;;8.84;53.14;100705.37;146626;569;45020;-81
2021/12/20 07:04:02;;;;;;;;;50.25;41.00;;;;;9.77;49.21;100704.53;146621;582;46012;-83
2021/12/20 07:06:55;;;;;;;;;45.25;37.00;;;;;10.51;48.17;100702.44;146623;631;46020;-83
2021/12/20 07:09:47;;;;;;;;;54.25;43.75;;;;;11.13;45.83;100698.59;146621;609;45016;-85
2021/12/20 07:12:39;;;;;;;;;50.25;38.50;;;;;11.64;46.12;100696.69;146626;663;45032;-84
2021/12/20 07:15:32;;;;;;;;;52.75;42.00;;;;;12.27;44.55;100694.34;146621;570;45016;-84
2021/12/20 07:18:24;;;;;;;;;59.25;46.25;;;;;12.96;43.67;100692.09;146624;601;46020;-85
2021/12/20 07:21:17;;;;;;;;;56.25;44.00;;;;;13.52;42.76;100700.38;146621;632;46012;-85
2021/12/20 07:24:09;;;;;;;;;140.00;126.50;;;;;13.89;41.41;100704.41;146627;682;46010;-82
2021/12/20 07:27:01;;;;;;;;;56.25;45.25;;;;;14.09;41.14;100714.75;146621;564;45026;-79
2021/12/20 07:29:54;;;;;;;;;44.75;37.25;;;;;14.15;40.73;100718.44;146623;582;46020;-79
2021/12/20 07:32:46;;;;;;;;;35.25;30.75;;;;;14.15;40.28;100711.47;146618;599;46016;-77
2021/12/20 07:35:40;;;;;;;;;33.75;31.00;;;;;14.31;39.43;100716.41;146620;627;46020;-79
2021/12/20 07:38:34;;;;;;;;;46.75;38.25;;;;;14.23;36.82;100714.34;146622;670;46012;-79
2021/12/20 07:41:27;;;;;;;;;39.00;31.75;;;;;13.72;38.05;100719.41;146626;594;46010;-81
2021/12/20 07:44:20;;;;;;;;;58.25;46.00;;;;;12.89;37.91;100722.16;146622;617;46016;-79
2021/12/20 07:47:12;;;;;;;;;59.00;43.75;;;;;12.06;40.23;100722.00;146623;579;46020;-77
2021/12/20 07:50:04;;;;;;;;;49.75;40.50;;;;;11.42;41.71;100732.84;146621;745;46012;-76
2021/12/20 07:52:56;;;;;;;;;49.00;38.25;;;;;11.09;43.74;100731.28;146623;572;46010;-75
2021/12/20 07:55:49;;;;;;;;;53.25;42.75;;;;;11.01;43.88;100739.50;146618;644;46916;-75
2021/12/20 07:58:41;;;;;;;;;48.75;36.50;;;;;10.98;45.06;100737.66;146625;606;45021;-83
2021/12/20 08:01:36;;;;;;;;;35.75;33.25;;;;;11.12;44.52;100745.22;146622;601;46012;-85
2021/12/20 08:04:28;;;;;;;;;51.75;39.00;;;;;11.22;44.48;100748.34;146624;585;45020;-81
2021/12/20 08:07:22;;;;;;;;;34.25;28.00;;;;;11.26;43.99;100757.19;146621;564;46012;-82
2021/12/20 08:10:14;;;;;;;;;28.25;24.75;;;;;11.25;44.26;100758.87;146625;594;46010;-83
2021/12/20 08:13:07;;;;;;;;;28.50;22.25;;;;;11.25;45.03;100755.41;146620;598;46017;-77
2021/12/20 08:15:59;;;;;;;;;32.00;28.75;;;;;11.30;45.22;100757.38;146623;627;46020;-86
2021/12/20 08:18:52;;;;;;;;;32.25;26.75;;;;;11.44;44.04;100767.56;146620;586;46013;-79
2021/12/20 08:21:44;;;;;;;;;29.50;24.00;;;;;11.43;44.03;100756.31;146624;581;46020;-81
2021/12/20 08:24:38;;;;;;;;;28.75;25.00;;;;;11.36;45.21;100758.50;146619;569;46016;-80
2021/12/20 08:27:31;;;;;;;;;36.00;31.25;;;;;11.29;43.19;100763.41;146623;717;46010;-81
2021/12/20 08:30:24;;;;;;;;;4.00;4.00;;;;;11.25;43.82;100766.69;146620;570;46016;-80
2021/12/20 08:33:16;;;;;;;;;32.25;30.00;;;;;11.34;45.09;100768.84;146625;619;46010;-78
2021/12/20 08:36:12;;;;;;;;;30.25;24.25;;;;;11.52;45.11;100772.28;146620;597;45017;-78
2021/12/20 08:39:04;;;;;;;;;37.50;30.00;;;;;11.68;45.31;100766.16;146626;745;45030;-81
2021/12/20 08:41:56;;;;;;;;;37.25;30.00;;;;;11.86;43.72;100768.72;146617;595;46017;-78
2021/12/20 08:44:49;;;;;;;;;45.75;37.25;;;;;11.88;44.27;100748.03;146625;761;45020;-79
2021/12/20 08:47:41;;;;;;;;;38.25;33.00;;;;;12.09;42.58;100774.12;146621;570;45017;-79
2021/12/20 08:50:33;;;;;;;;;31.75;28.75;;;;;12.09;43.15;100762.03;146623;600;45021;-78
2021/12/20 08:53:26;;;;;;;;;38.50;30.75;;;;;12.11;43.70;100757.75;146623;686;45016;-79
2021/12/20 08:56:18;;;;;;;;;39.25;33.00;;;;;12.18;43.14;100757.25;146624;612;45021;-79
2021/12/20 08:59:11;;;;;;;;;40.00;32.50;;;;;12.15;42.91;100769.19;146621;571;46012;-79
2021/12/20 09:02:06;;;;;;;;;41.50;34.00;;;;;12.11;44.33;100786.34;146625;608;46010;-80
2021/12/20 09:04:58;;;;;;;;;32.50;28.75;;;;;11.99;44.46;100778.91;146619;571;46017;-78
2021/12/20 09:07:51;;;;;;;;;37.50;29.75;;;;;11.90;44.33;100773.28;146623;565;46020;-83
2021/12/20 09:10:43;;;;;;;;;31.50;30.25;;;;;11.86;43.84;100776.53;146618;630;46016;-77
2021/12/20 09:13:35;;;;;;;;;36.75;29.00;;;;;11.95;45.33;100776.97;146625;573;45023;-80
2021/12/20 09:16:29;;;;;;;;;32.50;25.75;;;;;12.13;43.89;100779.53;146622;592;45016;-73
2021/12/20 09:19:22;;;;;;;;;23.00;22.75;;;;;12.34;45.62;100777.00;146622;690;46021;-73
2021/12/20 09:22:15;;;;;;;;;30.50;26.75;;;;;12.61;44.94;100774.72;146620;569;46016;-73
2021/12/20 09:25:07;;;;;;;;;25.00;23.50;;;;;12.84;43.36;100772.25;146625;605;46010;-72
2021/12/20 09:28:01;;;;;;;;;27.25;22.25;;;;;13.09;47.21;100784.59;146621;640;46012;-69
2021/12/20 09:30:54;;;;;;;;;27.50;24.25;;;;;13.42;44.96;100777.28;146621;629;46020;-69
2021/12/20 09:33:46;;;;;;;;;25.75;23.75;;;;;13.75;45.49;100784.69;146622;637;46012;-69
2021/12/20 09:36:38;;;;;;;;;32.75;26.50;;;;;14.03;45.38;100784.03;146625;606;45032;-68
2021/12/20 09:39:31;;;;;;;;;25.00;23.00;;;;;14.25;43.55;100773.56;146620;602;46016;-69
2021/12/20 09:42:23;;;;;;;;;27.25;24.00;;;;;14.41;41.91;100761.97;146623;631;45026;-71
2021/12/20 09:45:16;;;;;;;;;26.00;25.00;;;;;14.52;41.71;100763.31;146621;612;46012;-69
2021/12/20 09:48:09;;;;;;;;;28.50;24.00;;;;;14.58;43.18;100766.94;146621;612;46020;-69
2021/12/20 09:51:02;;;;;;;;;29.75;24.25;;;;;14.62;42.80;100756.69;146620;589;46016;-69
2021/12/20 09:53:57;;;;;;;;;28.75;24.50;;;;;14.59;41.65;100745.25;146621;584;46020;-69
2021/12/20 09:56:49;;;;;;;;;33.50;27.00;;;;;14.54;42.26;100747.69;146621;569;46016;-68
2021/12/20 09:59:42;;;;;;;;;26.75;24.50;;;;;14.51;42.31;100744.97;146623;605;45020;-69
2021/12/20 10:02:34;;;;;;;;;26.00;25.50;;;;;14.49;42.32;100744.00;146623;560;46013;-68
2021/12/20 10:05:27;;;;;;;;;22.75;21.25;;;;;14.43;41.22;100743.78;146624;606;46020;-69
2021/12/20 10:08:21;;;;;;;;;24.25;20.75;;;;;13.74;42.12;100640.47;146621;664;45916;-69
2021/12/20 10:11:31;;;;;;;;;20.50;16.75;;;;;14.39;43.31;100748.00;146622;584;46021;-69
2021/12/20 10:14:24;;;;;;;;;19.25;16.75;;;;;14.45;41.16;100742.97;146618;591;46016;-69
2021/12/20 10:17:16;;;;;;;;;25.25;21.00;;;;;14.48;40.87;100737.00;146626;593;45020;-68
2021/12/20 10:20:32;;;;;;;;;19.25;15.50;;;;;14.28;42.84;100750.22;146621;625;46012;-71
2021/12/20 10:23:33;;;;;;;;;18.25;16.50;;;;;14.23;43.62;100746.53;146625;662;46020;-69
2021/12/20 10:26:26;;;;;;;;;14.50;13.25;;;;;14.29;41.90;100748.50;146617;564;46016;-70
2021/12/20 10:29:23;;;;;;;;;14.00;13.00;;;;;14.33;43.16;100745.19;146624;582;46010;-70
2021/12/20 10:32:15;;;;;;;;;12.50;11.00;;;;;14.31;41.72;100746.84;146622;576;46012;-70
2021/12/20 10:35:38;;;;;;;;;12.50;10.00;;;;;14.27;43.41;100758.00;146624;585;46020;-69
2021/12/20 10:38:38;;;;;;;;;12.25;9.25;;;;;14.36;43.31;100760.03;146622;564;46012;-69
2021/12/20 10:41:36;;;;;;;;;10.75;9.75;;;;;14.49;43.67;100770.09;146624;603;45021;-70
2021/12/20 10:44:28;;;;;;;;;9.00;8.00;;;;;14.63;41.39;100768.00;146624;569;46012;-69
2021/12/20 10:47:30;;;;;;;;;7.25;7.25;;;;;14.58;40.95;100760.03;146626;581;45021;-70
2021/12/20 10:50:45;;;;;;;;;8.25;8.25;;;;;14.44;41.84;100754.25;146623;602;46012;-70
2021/12/20 10:53:37;;;;;;;;;16.75;13.75;;;;;14.32;42.21;100744.25;146624;566;46021;-71
2021/12/20 10:56:32;;;;;;;;;12.00;9.75;;;;;14.28;41.37;100739.78;146619;576;46016;-69
2021/12/20 10:59:28;;;;;;;;;11.75;10.00;;;;;14.40;42.98;100738.47;146623;644;46010;-69
2021/12/20 11:05:37;;;;;;;;;8.00;8.00;;;;;14.70;42.96;100757.84;146624;586;46020;-70
2021/12/20 11:11:42;;;;;;;;;10.00;8.00;;;;;15.08;42.22;100760.88;146622;602;46021;-70
2021/12/20 11:14:45;;;;;;;;;9.75;7.25;;;;;15.30;43.35;100761.59;146619;603;46916;-70
2021/12/20 11:17:40;;;;;;;;;7.25;5.75;;;;;15.50;41.96;100754.38;146625;599;45021;-69
2021/12/20 11:20:32;;;;;;;;;14.25;12.50;;;;;15.72;40.91;100763.81;146620;569;46916;-69
2021/12/20 11:23:30;;;;;;;;;9.75;8.25;;;;;15.81;39.60;100753.62;146622;601;46020;-69
2021/12/20 11:26:23;;;;;;;;;13.25;12.00;;;;;15.76;40.64;100753.47;146619;597;46014;-69
2021/12/20 11:29:15;;;;;;;;;12.25;9.75;;;;;15.72;39.15;100749.00;146623;571;46010;-68
2021/12/20 11:32:09;;;;;;;;;10.50;9.50;;;;;15.77;41.16;100765.72;146618;592;46017;-69
2021/12/20 11:35:01;;;;;;;;;9.25;9.25;;;;;15.91;40.87;100758.28;146625;621;46010;-69
2021/12/20 11:37:54;;;;;;;;;15.75;14.25;;;;;16.13;40.70;100763.31;146621;657;46015;-70
2021/12/20 11:40:46;;;;;;;;;10.50;10.25;;;;;16.42;41.03;100768.53;146626;618;45014;-69
2021/12/20 11:43:39;;;;;;;;;8.00;7.75;;;;;16.68;39.83;100774.47;146622;622;46012;-69
2021/12/20 11:46:50;;;;;;;;;13.25;11.75;;;;;16.88;39.54;100769.78;146625;590;45021;-69
2021/12/20 11:49:42;;;;;;;;;8.00;8.00;;;;;17.02;38.56;100765.81;146621;595;46014;-69
2021/12/20 11:52:43;;;;;;;;;8.25;6.75;;;;;17.13;38.58;100755.59;146624;718;46020;-69
2021/12/20 11:55:36;;;;;;;;;8.00;8.00;;;;;17.27;38.05;100762.06;146620;612;46012;-70
2021/12/20 11:58:31;;;;;;;;;9.50;9.50;;;;;17.35;36.13;100770.09;146623;575;46010;-69
2021/12/20 12:01:24;;;;;;;;;13.75;12.25;;;;;17.34;38.33;100778.81;146622;575;47012;-70
2021/12/20 12:04:16;;;;;;;;;12.00;11.00;;;;;17.46;36.73;100780.84;146625;641;45020;-70
2021/12/20 12:07:28;;;;;;;;;13.25;12.00;;;;;17.54;39.19;100776.69;146619;585;46016;-71
2021/12/20 12:10:22;;;;;;;;;6.50;6.50;;;;;17.54;36.79;100772.34;146624;566;46021;-69
2021/12/20 12:13:16;;;;;;;;;9.50;8.00;;;;;17.48;36.84;100774.81;146619;596;46016;-69
2021/12/20 12:16:25;;;;;;;;;12.75;11.75;;;;;17.40;38.45;100772.84;146625;629;45021;-70
2021/12/20 12:19:56;;;;;;;;;8.25;6.00;;;;;16.69;39.34;100628.72;146617;596;47916;-69
2021/12/20 12:22:49;;;;;;;;;10.50;10.00;;;;;17.64;37.53;100762.94;146626;579;45020;-72
2021/12/20 12:25:47;;;;;;;;;9.75;7.50;;;;;17.75;37.78;100771.03;146622;612;46012;-69
2021/12/20 12:28:59;;;;;;;;;12.00;11.00;;;;;17.83;39.20;100766.03;146625;642;46010;-69
2021/12/20 12:32:11;;;;;;;;;10.75;10.00;;;;;17.77;38.67;100777.25;146622;578;45017;-69
2021/12/20 12:35:04;;;;;;;;;10.00;9.00;;;;;17.74;37.29;100769.28;146625;599;45020;-69
2021/12/20 12:38:18;;;;;;;;;18.50;16.00;;;;;17.77;39.51;100769.37;146621;594;46016;-70
2021/12/20 12:41:25;;;;;;;;;9.50;9.50;;;;;17.92;39.88;100772.34;146624;639;45023;-69
2021/12/20 12:44:40;;;;;;;;;12.25;12.25;;;;;17.16;39.42;100623.78;146622;573;45017;-69
2021/12/20 12:47:42;;;;;;;;;15.00;12.75;;;;;18.06;39.20;100770.00;146602;585;47010;-69
2021/12/20 12:50:34;;;;;;;;;17.25;15.75;;;;;18.14;37.47;100764.94;146609;613;46012;-70
2021/12/20 12:53:47;;;;;;;;;8.00;7.50;;;;;18.29;39.32;100762.66;146612;569;46021;-70
2021/12/20 12:56:40;;;;;;;;;16.50;14.50;;;;;18.37;38.18;100774.16;146607;593;46016;-68
2021/12/20 12:59:32;;;;;;;;;9.00;7.00;;;;;18.50;37.66;100785.78;146611;578;46010;-69
2021/12/20 13:02:33;;;;;;;;;8.25;6.25;;;;;18.53;37.66;100784.97;146608;595;46012;-68
2021/12/20 13:05:27;;;;;;;;;8.75;8.75;;;;;18.61;37.94;100792.16;146608;588;46010;-70
2021/12/20 13:08:20;;;;;;;;;10.50;10.50;;;;;18.76;38.16;100786.34;146607;597;46012;-68
2021/12/20 13:11:29;;;;;;;;;8.00;7.75;;;;;18.85;38.14;100783.03;146611;590;45020;-70
2021/12/20 13:14:21;;;;;;;;;14.25;11.25;;;;;18.81;35.48;100779.44;146609;679;46012;-69
2021/12/20 13:17:13;;;;;;;;;20.00;18.00;;;;;18.57;35.51;100782.47;146613;586;45029;-70
2021/12/20 13:20:58;;;;;;;;;9.75;9.75;;;;;18.21;35.76;100788.72;146607;570;46014;-70
2021/12/20 13:23:50;;;;;;;;;16.25;14.50;;;;;18.01;37.03;100787.41;146606;617;46021;-71
2021/12/20 13:26:42;;;;;;;;;15.00;13.75;;;;;17.93;35.76;100784.59;146609;624;46012;-68
2021/12/20 13:29:35;;;;;;;;;8.75;8.00;;;;;17.84;36.32;100784.41;146609;575;46021;-70
2021/12/20 13:32:27;;;;;;;;;7.50;7.25;;;;;17.72;37.81;100794.56;146610;588;46012;-69
2021/12/20 13:35:23;;;;;;;;;11.00;9.33;;;;;17.74;39.02;100798.12;146609;566;46020;-70
2021/12/20 13:38:22;;;;;;;;;4.67;4.67;;;;;17.85;39.17;100801.03;146611;591;45020;-68